Time;durP1;ratioP1;P1;durP2;ratioP2;P2;SDS_P1;SDS_P2;PMS_P1;PMS_P2;Temp;Humidity;BMP_temperature;BMP_pressure;BME280_temperature;BME280_humidity;BME280_pressure;Samples;Min_cycle;Max_cycle;Signal;HPM_P1;HPM_P2
2022/10/29 00:01:14;;;;;;;3.43;3.10;;;11.20;74.00;;;;;;5012111;28;20181;-73
2022/10/29 00:03:40;;;;;;;4.33;3.93;;;11.20;74.00;;;;;;5012905;28;20181;-74
2022/10/29 00:06:09;;;;;;;6.00;4.20;;;11.20;73.70;;;;;;5016077;28;20214;-74
2022/10/29 00:08:36;;;;;;;4.30;3.90;;;11.20;73.70;;;;;;5010403;28;20219;-74
2022/10/29 00:11:14;;;;;;;5.57;3.90;;;11.20;74.00;;;;;;5010264;28;20903;-72
2022/10/29 00:13:40;;;;;;;5.97;4.03;;;11.20;73.90;;;;;;5010982;28;20208;-74
2022/10/29 00:16:36;;;;;;;4.93;4.50;;;11.20;73.90;;;;;;5010830;28;20184;-74
2022/10/29 00:19:03;;;;;;;6.03;3.67;;;11.10;73.70;;;;;;5011316;28;20311;-74
2022/10/29 00:21:29;;;;;;;4.83;3.67;;;11.10;74.40;;;;;;5012122;28;20277;-73
2022/10/29 00:23:56;;;;;;;9.10;4.13;;;11.10;75.10;;;;;;5010005;28;20267;-73
2022/10/29 00:26:23;;;;;;;5.40;3.27;;;11.10;75.10;;;;;;5016012;28;20180;-74
2022/10/29 00:28:52;;;;;;;3.93;3.10;;;11.00;75.00;;;;;;5011247;28;20239;-73
2022/10/29 00:31:18;;;;;;;3.47;3.03;;;11.00;74.10;;;;;;5006159;28;20185;-73
2022/10/29 00:33:45;;;;;;;4.13;2.90;;;11.00;74.10;;;;;;5008959;28;20205;-73
2022/10/29 00:36:14;;;;;;;3.57;3.00;;;10.90;74.40;;;;;;5011216;28;20210;-73
2022/10/29 00:38:40;;;;;;;2.70;2.50;;;10.90;74.20;;;;;;5011761;28;20242;-73
2022/10/29 00:41:09;;;;;;;3.73;3.20;;;10.90;74.90;;;;;;5015653;28;20180;-74
2022/10/29 00:43:36;;;;;;;4.03;2.83;;;10.90;74.90;;;;;;5012633;28;20220;-74
2022/10/29 00:46:07;;;;;;;3.07;2.87;;;10.90;75.10;;;;;;5011262;28;20204;-73
2022/10/29 00:48:38;;;;;;;3.43;3.13;;;10.80;74.40;;;;;;5009730;28;20192;-73
2022/10/29 00:51:05;;;;;;;2.93;2.57;;;10.80;74.20;;;;;;5011681;28;20362;-73
2022/10/29 00:53:37;;;;;;;3.97;2.63;;;10.80;74.60;;;;;;5009990;28;20246;-73
2022/10/29 00:56:03;;;;;;;2.87;2.77;;;10.70;74.40;;;;;;5011102;28;20206;-74
2022/10/29 00:58:29;;;;;;;4.67;2.87;;;10.70;74.60;;;;;;5016954;28;20208;-73
2022/10/29 01:00:55;;;;;;;4.23;3.07;;;10.70;76.10;;;;;;5009613;28;20177;-72
2022/10/29 01:03:21;;;;;;;10.33;3.67;;;10.70;76.00;;;;;;5010238;28;20212;-73
2022/10/29 01:05:48;;;;;;;5.03;4.00;;;10.70;76.30;;;;;;5015296;28;20448;-72
2022/10/29 01:08:14;;;;;;;4.07;3.40;;;10.60;76.10;;;;;;5005786;28;20185;-72
2022/10/29 01:11:03;;;;;;;6.13;3.67;;;10.60;77.60;;;;;;5014246;28;20176;-73
2022/10/29 01:13:44;;;;;;;6.27;3.20;;;10.60;78.30;;;;;;5009130;28;20219;-72
2022/10/29 01:16:29;;;;;;;4.07;3.13;;;10.50;78.30;;;;;;5009065;28;20195;-73
2022/10/29 01:18:55;;;;;;;2.93;2.73;;;10.40;79.10;;;;;;4979587;28;20623;-74
2022/10/29 01:21:41;;;;;;;6.87;2.80;;;10.30;79.20;;;;;;4982511;28;20232;-74
2022/10/29 01:24:35;;;;;;;2.40;2.30;;;10.30;78.90;;;;;;4964818;28;20204;-73
2022/10/29 01:27:38;;;;;;;5.50;2.60;;;10.20;78.40;;;;;;4923057;29;20881;-72
2022/10/29 01:30:03;;;;;;;4.00;3.03;;;10.10;78.30;;;;;;4923079;29;20213;-73
2022/10/29 01:32:38;;;;;;;2.60;2.40;;;10.10;78.30;;;;;;4923451;29;20188;-74
2022/10/29 01:35:14;;;;;;;5.63;2.87;;;10.00;77.50;;;;;;4924367;29;20226;-71
2022/10/29 01:37:51;;;;;;;6.33;2.23;;;10.00;76.80;;;;;;4922548;29;20203;-72
2022/10/29 01:40:20;;;;;;;3.87;2.40;;;10.00;76.90;;;;;;4924095;29;20258;-71
2022/10/29 01:42:52;;;;;;;2.50;2.30;;;9.90;76.30;;;;;;4923343;29;20203;-73
2022/10/29 01:45:28;;;;;;;2.50;2.30;;;9.90;76.40;;;;;;4923022;29;20207;-74
2022/10/29 01:47:57;;;;;;;2.00;1.90;;;9.90;77.40;;;;;;4906399;29;20747;-74
2022/10/29 01:50:24;;;;;;;3.90;2.23;;;10.00;77.20;;;;;;4923586;29;20192;-73
2022/10/29 01:52:52;;;;;;;3.23;2.50;;;9.90;77.10;;;;;;4926393;29;20183;-74
2022/10/29 01:55:34;;;;;;;2.43;2.20;;;9.90;77.40;;;;;;4930785;29;20226;-75
2022/10/29 01:58:03;;;;;;;2.50;2.37;;;9.90;77.80;;;;;;4944862;28;20464;-73
2022/10/29 02:00:39;;;;;;;2.63;2.10;;;9.90;78.70;;;;;;4945141;28;20660;-72
2022/10/29 02:03:23;;;;;;;2.27;2.17;;;9.80;77.70;;;;;;4955490;28;20275;-73
2022/10/29 02:06:07;;;;;;;2.63;2.47;;;9.80;77.80;;;;;;5015894;28;20185;-73
2022/10/29 02:08:54;;;;;;;2.10;1.90;;;9.80;78.10;;;;;;5013680;28;20662;-74
2022/10/29 02:11:44;;;;;;;2.70;2.20;;;9.80;78.20;;;;;;5020360;28;20177;-73
2022/10/29 02:14:19;;;;;;;1.90;1.80;;;9.80;78.30;;;;;;5012734;28;20293;-74
2022/10/29 02:16:45;;;;;;;3.40;1.90;;;9.60;77.30;;;;;;5015250;28;20184;-73
2022/10/29 02:19:11;;;;;;;2.40;2.30;;;9.60;78.00;;;;;;5015246;28;20593;-72
2022/10/29 02:21:39;;;;;;;2.30;2.10;;;9.60;77.80;;;;;;5012763;28;20176;-74
2022/10/29 02:24:05;;;;;;;2.63;2.40;;;9.60;77.20;;;;;;5017420;28;20192;-71
2022/10/29 02:26:31;;;;;;;2.20;2.00;;;9.60;78.10;;;;;;5013558;28;20686;-73
2022/10/29 02:28:57;;;;;;;5.43;2.47;;;9.60;77.70;;;;;;5014761;28;20263;-73
2022/10/29 02:31:23;;;;;;;2.33;2.23;;;9.60;78.00;;;;;;5013388;28;20185;-73
2022/10/29 02:33:49;;;;;;;2.27;2.07;;;9.60;77.60;;;;;;5014570;28;20665;-73
2022/10/29 02:36:15;;;;;;;3.73;2.73;;;9.60;78.00;;;;;;5019352;28;20198;-73
2022/10/29 02:38:40;;;;;;;2.27;2.07;;;9.50;77.30;;;;;;5013840;28;20185;-73
2022/10/29 02:41:06;;;;;;;3.03;2.83;;;9.50;78.00;;;;;;5013248;28;20242;-73
2022/10/29 02:43:32;;;;;;;3.73;2.37;;;9.50;77.90;;;;;;5015288;28;20280;-73
2022/10/29 02:46:18;;;;;;;2.20;2.10;;;9.50;78.60;;;;;;5016276;28;20231;-73
2022/10/29 02:48:44;;;;;;;4.77;2.13;;;9.50;77.90;;;;;;5013604;28;20185;-74
2022/10/29 02:51:10;;;;;;;3.03;2.80;;;9.50;78.60;;;;;;5011526;28;20185;-73
2022/10/29 02:53:36;;;;;;;3.13;2.83;;;9.40;77.40;;;;;;5013187;28;20212;-74
2022/10/29 02:56:03;;;;;;;2.53;2.43;;;9.40;78.50;;;;;;5011610;28;20189;-73
2022/10/29 02:58:28;;;;;;;6.10;2.83;;;9.40;77.80;;;;;;5010743;28;20212;-73
2022/10/29 03:00:54;;;;;;;4.00;2.87;;;9.40;79.10;;;;;;5012862;28;20288;-73
2022/10/29 03:03:20;;;;;;;3.00;2.77;;;9.40;79.80;;;;;;5011172;28;20958;-73
2022/10/29 03:05:45;;;;;;;3.20;2.90;;;9.30;80.00;;;;;;5014553;28;20782;-73
2022/10/29 03:08:11;;;;;;;3.03;2.83;;;9.30;80.10;;;;;;5013151;28;20256;-73
2022/10/29 03:10:37;;;;;;;3.03;2.73;;;9.30;79.90;;;;;;5016308;28;20188;-73
2022/10/29 03:13:02;;;;;;;4.20;2.70;;;9.30;80.40;;;;;;5011105;28;20195;-73
2022/10/29 03:15:28;;;;;;;3.80;2.97;;;9.20;80.20;;;;;;5010987;28;20192;-74
2022/10/29 03:17:54;;;;;;;3.67;3.37;;;9.20;80.20;;;;;;5011061;28;20942;-73
2022/10/29 03:20:20;;;;;;;4.17;3.20;;;9.20;80.30;;;;;;5012833;28;20208;-73
2022/10/29 03:22:45;;;;;;;3.17;2.87;;;9.20;81.10;;;;;;5013844;28;20189;-72
2022/10/29 03:25:11;;;;;;;3.17;2.97;;;9.10;81.20;;;;;;5012689;28;20192;-72
2022/10/29 03:27:44;;;;;;;2.67;2.47;;;9.10;81.40;;;;;;5017172;28;20267;-72
2022/10/29 03:30:14;;;;;;;3.10;2.90;;;9.10;81.30;;;;;;5016333;28;20219;-71
2022/10/29 03:32:46;;;;;;;3.47;2.63;;;9.10;81.50;;;;;;5010140;28;20185;-72
2022/10/29 03:35:14;;;;;;;3.57;3.00;;;9.00;81.60;;;;;;5009314;28;20213;-71
2022/10/29 03:37:40;;;;;;;2.73;2.50;;;9.00;81.30;;;;;;5007654;28;20208;-72
2022/10/29 03:40:07;;;;;;;3.33;3.03;;;9.00;81.30;;;;;;5012695;28;20219;-73
2022/10/29 03:42:33;;;;;;;3.13;2.93;;;8.90;81.60;;;;;;5013105;28;20196;-73
2022/10/29 03:44:59;;;;;;;3.17;2.97;;;8.90;81.30;;;;;;5014181;28;20282;-74
2022/10/29 03:47:26;;;;;;;3.60;2.87;;;8.90;81.50;;;;;;5012620;28;20276;-71
2022/10/29 03:49:52;;;;;;;2.70;2.50;;;8.90;81.60;;;;;;5009030;28;20181;-73
2022/10/29 03:52:18;;;;;;;2.13;2.07;;;8.90;81.40;;;;;;5014483;28;20219;-73
2022/10/29 03:54:43;;;;;;;2.20;2.10;;;8.80;80.50;;;;;;5016083;28;20240;-74
2022/10/29 03:57:09;;;;;;;2.87;2.67;;;8.70;80.40;;;;;;5009175;28;20250;-73
2022/10/29 03:59:35;;;;;;;6.40;2.83;;;8.70;80.40;;;;;;5013195;28;20180;-73
2022/10/29 04:02:00;;;;;;;6.27;2.03;;;8.70;80.00;;;;;;5010213;28;20195;-73
2022/10/29 04:04:26;;;;;;;2.67;2.40;;;8.70;80.30;;;;;;5011631;28;20189;-73
2022/10/29 04:06:51;;;;;;;3.83;2.17;;;8.60;79.60;;;;;;5014749;28;20731;-73
2022/10/29 04:09:17;;;;;;;2.80;2.43;;;8.60;80.50;;;;;;5012368;28;20663;-73
2022/10/29 04:11:43;;;;;;;3.30;3.03;;;8.60;80.30;;;;;;5007635;28;20655;-73
2022/10/29 04:14:09;;;;;;;4.90;3.90;;;8.60;81.50;;;;;;5010681;28;20226;-73
2022/10/29 04:16:35;;;;;;;3.23;2.93;;;8.70;82.30;;;;;;5012565;28;20185;-73
2022/10/29 04:19:01;;;;;;;5.40;3.23;;;8.60;82.70;;;;;;5009450;28;20185;-73
2022/10/29 04:21:26;;;;;;;3.20;3.00;;;8.60;81.60;;;;;;5010232;28;20189;-74
2022/10/29 04:23:52;;;;;;;6.87;3.27;;;8.60;81.60;;;;;;5004992;28;20185;-73
2022/10/29 04:26:17;;;;;;;3.13;2.83;;;8.50;81.30;;;;;;5010261;28;20666;-73
2022/10/29 04:28:46;;;;;;;3.87;3.10;;;8.50;81.40;;;;;;5012226;28;20682;-73
2022/10/29 04:31:12;;;;;;;4.90;2.97;;;8.50;82.40;;;;;;5015816;28;20185;-74
2022/10/29 04:33:38;;;;;;;3.17;2.97;;;8.50;82.20;;;;;;5008940;28;20207;-73
2022/10/29 04:36:04;;;;;;;3.73;3.40;;;8.50;82.70;;;;;;5010932;28;20192;-74
2022/10/29 04:38:30;;;;;;;2.43;2.33;;;8.40;83.10;;;;;;5011874;28;20176;-73
2022/10/29 04:40:59;;;;;;;2.70;2.60;;;8.40;82.60;;;;;;5009873;28;20196;-73
2022/10/29 04:43:25;;;;;;;4.30;3.93;;;8.40;82.50;;;;;;5002910;28;20185;-73
2022/10/29 04:45:56;;;;;;;3.63;3.30;;;8.40;82.80;;;;;;5003634;28;20222;-73
2022/10/29 04:48:23;;;;;;;4.40;2.97;;;8.30;81.80;;;;;;5009774;28;20188;-73
2022/10/29 04:50:49;;;;;;;2.67;2.57;;;8.30;82.50;;;;;;5009703;28;20193;-72
2022/10/29 04:53:16;;;;;;;3.37;2.90;;;8.30;81.90;;;;;;5010196;28;20921;-73
2022/10/29 04:55:42;;;;;;;2.57;2.37;;;8.30;82.00;;;;;;5009145;28;20836;-73
2022/10/29 04:58:15;;;;;;;6.37;2.47;;;8.30;81.90;;;;;;5012326;28;20180;-73
2022/10/29 05:00:41;;;;;;;2.77;2.60;;;8.30;82.40;;;;;;5004974;28;20304;-72
2022/10/29 05:03:07;;;;;;;3.57;2.40;;;8.30;83.10;;;;;;5012213;28;20193;-73
2022/10/29 05:05:34;;;;;;;3.80;3.03;;;8.30;83.30;;;;;;5013941;28;20619;-74
2022/10/29 05:08:01;;;;;;;3.20;2.63;;;8.40;84.00;;;;;;5013275;28;20765;-74
2022/10/29 05:10:32;;;;;;;3.57;2.70;;;8.30;83.90;;;;;;5008439;28;20189;-73
2022/10/29 05:12:59;;;;;;;3.33;2.67;;;8.30;84.20;;;;;;5014803;28;20666;-73
2022/10/29 05:15:26;;;;;;;2.47;2.30;;;8.30;84.10;;;;;;5014558;28;20227;-73
2022/10/29 05:17:52;;;;;;;2.40;2.30;;;8.30;83.90;;;;;;5015298;28;20181;-73
2022/10/29 05:20:18;;;;;;;4.07;1.90;;;8.20;83.10;;;;;;5011836;28;20774;-73
2022/10/29 05:22:43;;;;;;;3.33;2.77;;;8.20;84.00;;;;;;5013642;28;20193;-74
2022/10/29 05:25:09;;;;;;;2.10;2.00;;;8.20;83.30;;;;;;5011528;28;20688;-72
2022/10/29 05:27:34;;;;;;;4.53;2.10;;;8.20;83.20;;;;;;5019832;28;20184;-72
2022/10/29 05:30:00;;;;;;;2.13;1.93;;;8.20;82.90;;;;;;5014176;28;20212;-72
2022/10/29 05:32:29;;;;;;;1.70;1.60;;;8.30;82.60;;;;;;5013049;28;20218;-73
2022/10/29 05:34:54;;;;;;;2.30;1.97;;;8.30;82.50;;;;;;5018471;28;20351;-74
2022/10/29 05:37:20;;;;;;;2.97;2.57;;;8.30;83.10;;;;;;5017190;28;20275;-72
2022/10/29 05:39:46;;;;;;;2.47;1.83;;;8.40;82.80;;;;;;5009250;28;20183;-72
2022/10/29 05:42:11;;;;;;;3.37;2.10;;;8.40;82.80;;;;;;5014694;28;20568;-74
2022/10/29 05:44:37;;;;;;;2.00;1.90;;;8.40;82.70;;;;;;5016961;28;20192;-71
2022/10/29 05:47:05;;;;;;;3.40;2.53;;;8.50;82.90;;;;;;5014288;28;20245;-74
2022/10/29 05:49:31;;;;;;;3.40;2.60;;;8.50;83.40;;;;;;5015271;28;20222;-73
2022/10/29 05:51:56;;;;;;;2.97;2.77;;;8.60;84.00;;;;;;5017912;28;20426;-72
2022/10/29 05:54:22;;;;;;;2.10;2.00;;;8.60;84.10;;;;;;5018866;28;20223;-73
2022/10/29 05:56:48;;;;;;;2.77;2.60;;;8.60;83.70;;;;;;5014879;28;20185;-73
2022/10/29 05:59:13;;;;;;;3.53;2.60;;;8.70;83.40;;;;;;5013564;28;20184;-73
2022/10/29 06:01:39;;;;;;;3.27;3.07;;;8.70;84.10;;;;;;5021033;28;20238;-73
2022/10/29 06:04:05;;;;;;;3.47;3.27;;;8.70;83.60;;;;;;5015907;28;20212;-72
2022/10/29 06:06:30;;;;;;;3.60;3.30;;;8.70;83.40;;;;;;5009339;28;20196;-72
2022/10/29 06:08:56;;;;;;;3.57;3.27;;;8.80;83.10;;;;;;5015449;28;20260;-73
2022/10/29 06:11:22;;;;;;;3.50;2.77;;;8.80;83.00;;;;;;5016863;28;20243;-73
2022/10/29 06:13:47;;;;;;;3.37;3.07;;;8.90;83.20;;;;;;5011318;28;20219;-73
2022/10/29 06:16:13;;;;;;;3.17;2.97;;;8.90;83.50;;;;;;5012993;28;20188;-73
2022/10/29 06:18:38;;;;;;;5.73;3.43;;;9.00;83.30;;;;;;5011283;28;20184;-73
2022/10/29 06:21:04;;;;;;;6.87;4.00;;;9.10;83.20;;;;;;5016399;28;20271;-73
2022/10/29 06:23:30;;;;;;;3.40;3.20;;;9.10;83.30;;;;;;5012431;28;20206;-73
2022/10/29 06:25:59;;;;;;;4.17;3.63;;;9.20;83.00;;;;;;5013492;28;20189;-73
2022/10/29 06:28:24;;;;;;;6.27;4.33;;;9.20;82.60;;;;;;5015063;28;20192;-73
2022/10/29 06:30:50;;;;;;;4.67;4.27;;;9.30;82.40;;;;;;5015170;28;20568;-74
2022/10/29 06:33:17;;;;;;;5.67;3.90;;;9.30;81.80;;;;;;5011189;28;20184;-73
2022/10/29 06:35:43;;;;;;;5.87;4.97;;;9.40;81.50;;;;;;5006638;28;21591;-72
2022/10/29 06:38:10;;;;;;;4.57;4.17;;;9.40;83.10;;;;;;5012762;28;20269;-74
2022/10/29 06:40:35;;;;;;;6.23;5.10;;;9.40;84.80;;;;;;5015488;28;21001;-74
2022/10/29 06:43:03;;;;;;;5.80;4.60;;;9.60;86.40;;;;;;5015555;28;20195;-73
2022/10/29 06:45:30;;;;;;;5.47;4.90;;;9.80;86.30;;;;;;5010300;28;20276;-74
2022/10/29 06:47:56;;;;;;;4.80;4.40;;;10.10;86.30;;;;;;5007952;28;20243;-74
2022/10/29 06:50:22;;;;;;;5.67;4.63;;;10.60;86.00;;;;;;5014680;28;20172;-73
2022/10/29 06:52:57;;;;;;;5.30;4.30;;;11.20;85.90;;;;;;5009984;28;20604;-72
2022/10/29 06:55:23;;;;;;;7.47;5.20;;;12.00;84.50;;;;;;5012726;28;20261;-70
2022/10/29 06:57:59;;;;;;;6.05;5.20;;;12.80;85.10;;;;;;5008167;28;20234;-70
2022/10/29 07:00:25;;;;;;;11.30;5.93;;;13.70;82.50;;;;;;5006330;28;20194;-72
2022/10/29 07:02:51;;;;;;;9.30;6.47;;;14.50;80.50;;;;;;5010370;28;20195;-69
2022/10/29 07:05:17;;;;;;;8.82;6.30;;;15.30;77.70;;;;;;5009408;28;20193;-70
2022/10/29 07:07:42;;;;;;;14.80;7.70;;;16.00;75.00;;;;;;5012062;28;20263;-72
2022/10/29 07:10:08;;;;;;;13.63;7.68;;;16.70;72.30;;;;;;5009192;28;20199;-72
2022/10/29 07:12:44;;;;;;;13.23;7.38;;;17.40;71.70;;;;;;5012307;28;20242;-70
2022/10/29 07:15:10;;;;;;;15.45;7.95;;;18.10;69.90;;;;;;5013391;28;20215;-71
2022/10/29 07:17:36;;;;;;;8.70;6.80;;;18.80;68.70;;;;;;5015362;28;20208;-70
2022/10/29 07:20:04;;;;;;;10.52;6.50;;;19.40;68.40;;;;;;5017608;28;20192;-70
2022/10/29 07:22:29;;;;;;;10.18;7.18;;;20.00;65.90;;;;;;5006233;28;20324;-70
2022/10/29 07:24:55;;;;;;;8.45;7.32;;;20.60;64.50;;;;;;5010366;28;20264;-74
2022/10/29 07:27:21;;;;;;;14.07;7.70;;;21.20;63.60;;;;;;5005138;28;20191;-76
2022/10/29 07:29:47;;;;;;;11.25;8.05;;;21.80;61.50;;;;;;5011419;28;20264;-71
2022/10/29 07:32:12;;;;;;;12.45;8.30;;;22.20;60.90;;;;;;5006766;28;20237;-72
2022/10/29 07:34:38;;;;;;;10.57;7.57;;;22.60;60.70;;;;;;5005862;28;20213;-73
2022/10/29 07:37:04;;;;;;;11.25;7.57;;;23.00;60.30;;;;;;5003260;28;20187;-70
2022/10/29 07:39:29;;;;;;;8.45;7.57;;;23.40;58.80;;;;;;5010526;28;20741;-69
2022/10/29 07:41:55;;;;;;;9.48;7.28;;;23.80;57.40;;;;;;5006603;28;20180;-70
2022/10/29 07:44:20;;;;;;;7.88;7.13;;;24.00;57.00;;;;;;5012349;28;20214;-70
2022/10/29 07:46:46;;;;;;;8.65;7.07;;;24.20;55.50;;;;;;5011816;28;20245;-70
2022/10/29 07:49:12;;;;;;;7.50;6.75;;;24.20;56.60;;;;;;5014658;28;20334;-70
2022/10/29 07:51:37;;;;;;;7.47;6.82;;;24.40;56.30;;;;;;5013002;28;20180;-69
2022/10/29 07:54:03;;;;;;;7.05;6.43;;;24.80;55.80;;;;;;5009103;28;20220;-69
2022/10/29 07:56:29;;;;;;;10.77;7.35;;;25.20;55.00;;;;;;5009783;28;21022;-69
2022/10/29 07:58:54;;;;;;;8.23;6.72;;;25.60;54.90;;;;;;5010242;28;20223;-71
2022/10/29 08:01:20;;;;;;;7.95;6.60;;;26.00;54.00;;;;;;5013737;28;20181;-70
2022/10/29 08:03:48;;;;;;;7.20;6.57;;;26.50;54.10;;;;;;5011516;28;20193;-70
2022/10/29 08:06:14;;;;;;;7.05;6.45;;;26.90;53.10;;;;;;5011939;28;20180;-68
2022/10/29 08:08:39;;;;;;;6.95;6.32;;;27.30;52.00;;;;;;5010505;28;20666;-72
2022/10/29 08:11:05;;;;;;;10.00;6.22;;;27.70;51.50;;;;;;5012981;28;20189;-71
2022/10/29 08:13:32;;;;;;;7.38;6.68;;;28.20;51.50;;;;;;5008229;28;20655;-68
2022/10/29 08:15:57;;;;;;;7.40;6.70;;;28.60;50.10;;;;;;5007153;28;20188;-70
2022/10/29 08:18:23;;;;;;;6.88;6.28;;;28.80;49.90;;;;;;5003655;28;20192;-72
2022/10/29 08:20:49;;;;;;;8.23;5.88;;;29.00;49.40;;;;;;5008484;28;20184;-69
2022/10/29 08:23:15;;;;;;;6.75;6.15;;;29.20;49.50;;;;;;5010275;28;20325;-69
2022/10/29 08:25:41;;;;;;;8.30;6.03;;;29.30;49.20;;;;;;5012096;28;20217;-70
2022/10/29 08:28:10;;;;;;;7.78;7.05;;;29.40;48.60;;;;;;5008765;28;20200;-72
2022/10/29 08:30:36;;;;;;;11.25;7.15;;;29.60;48.00;;;;;;5003323;28;20185;-70
2022/10/29 08:33:03;;;;;;;9.07;7.18;;;29.60;48.60;;;;;;5010211;28;20605;-69
2022/10/29 08:35:29;;;;;;;6.65;6.05;;;29.70;48.70;;;;;;5010424;28;20217;-68
2022/10/29 08:37:55;;;;;;;7.32;6.35;;;30.00;48.10;;;;;;5007062;28;20192;-68
2022/10/29 08:40:48;;;;;;;8.32;7.05;;;30.40;47.60;;;;;;5012996;28;20185;-67
2022/10/29 08:43:35;;;;;;;8.93;6.32;;;30.80;46.80;;;;;;5014160;28;20254;-69
2022/10/29 08:46:01;;;;;;;7.63;5.75;;;31.30;45.90;;;;;;5009109;28;20228;-68
2022/10/29 08:48:45;;;;;;;6.70;5.72;;;31.70;45.90;;;;;;5008745;28;20196;-69
2022/10/29 08:51:30;;;;;;;6.80;5.55;;;32.10;45.40;;;;;;5005869;28;21591;-68
2022/10/29 08:53:57;;;;;;;5.63;5.20;;;32.60;44.50;;;;;;5002301;28;20205;-69
2022/10/29 08:56:34;;;;;;;6.63;5.47;;;32.90;45.00;;;;;;5009978;28;20189;-69
2022/10/29 08:59:13;;;;;;;6.50;6.03;;;33.30;44.60;;;;;;5007136;28;20211;-69
2022/10/29 09:01:38;;;;;;;10.57;6.03;;;33.60;44.00;;;;;;5006142;28;20236;-67
2022/10/29 09:04:23;;;;;;;7.95;6.00;;;33.90;44.00;;;;;;5012686;28;20192;-67
2022/10/29 09:07:06;;;;;;;6.25;5.65;;;34.20;42.70;;;;;;5008237;28;20219;-68
2022/10/29 09:09:48;;;;;;;16.05;5.00;;;34.60;43.40;;;;;;5012361;28;20191;-67
2022/10/29 09:12:37;;;;;;;12.10;5.18;;;34.80;43.90;;;;;;5007252;28;20881;-70
2022/10/29 09:15:32;;;;;;;5.88;5.38;;;35.10;42.50;;;;;;4958507;28;20243;-68
2022/10/29 09:18:18;;;;;;;5.57;4.97;;;35.30;43.10;;;;;;4973161;28;20580;-68
2022/10/29 09:20:57;;;;;;;5.40;4.75;;;35.30;43.60;;;;;;4957497;28;20257;-67
2022/10/29 09:23:35;;;;;;;5.20;4.70;;;35.40;43.80;;;;;;4954291;28;20257;-70
2022/10/29 09:26:09;;;;;;;5.05;4.65;;;35.60;42.30;;;;;;4958495;28;20697;-67
2022/10/29 09:28:53;;;;;;;7.78;4.97;;;35.80;43.40;;;;;;4954211;28;20621;-68
2022/10/29 09:31:42;;;;;;;5.88;5.47;;;35.90;42.10;;;;;;4954351;28;20217;-68
2022/10/29 09:34:24;;;;;;;7.63;5.40;;;36.00;42.20;;;;;;4954395;28;20224;-68
2022/10/29 09:36:50;;;;;;;5.40;4.68;;;36.00;43.20;;;;;;4953428;28;20753;-68
2022/10/29 09:39:34;;;;;;;4.65;4.35;;;36.20;42.80;;;;;;4958780;28;20469;-68
2022/10/29 09:42:01;;;;;;;4.40;4.10;;;36.40;42.70;;;;;;4946285;28;20182;-68
2022/10/29 09:44:45;;;;;;;4.82;4.05;;;36.50;42.50;;;;;;4955083;28;20195;-70
2022/10/29 09:47:26;;;;;;;4.07;3.88;;;36.70;42.30;;;;;;4955601;28;20237;-69
2022/10/29 09:50:10;;;;;;;3.63;3.47;;;36.80;39.70;;;;;;4955785;28;20909;-70
2022/10/29 09:52:40;;;;;;;6.90;4.50;;;36.90;40.80;;;;;;4989830;28;20262;-70
2022/10/29 09:55:16;;;;;;;4.10;3.88;;;37.00;41.70;;;;;;5012945;28;20200;-69
2022/10/29 09:57:42;;;;;;;4.00;3.80;;;37.10;41.10;;;;;;5006337;28;20188;-71
2022/10/29 10:00:22;;;;;;;3.83;3.63;;;37.20;40.90;;;;;;5005978;28;20271;-69
2022/10/29 10:02:58;;;;;;;4.10;3.60;;;37.30;41.20;;;;;;5006740;28;20243;-71
2022/10/29 10:05:27;;;;;;;3.67;3.47;;;37.40;42.20;;;;;;5010899;28;20180;-72
2022/10/29 10:08:11;;;;;;;6.85;4.45;;;37.50;40.10;;;;;;5008084;28;20181;-70
2022/10/29 10:10:54;;;;;;;4.13;3.92;;;37.40;40.70;;;;;;5013926;28;20191;-73
2022/10/29 10:13:24;;;;;;;9.70;3.80;;;37.30;40.20;;;;;;5011299;28;20245;-70
2022/10/29 10:15:55;;;;;;;3.95;3.72;;;37.30;41.70;;;;;;5011950;28;20250;-70
2022/10/29 10:18:46;;;;;;;3.25;3.15;;;37.30;41.40;;;;;;5015483;28;20190;-70
2022/10/29 10:21:22;;;;;;;3.67;3.38;;;37.40;41.40;;;;;;5016142;28;20223;-70
2022/10/29 10:23:53;;;;;;;3.45;3.30;;;37.50;39.90;;;;;;5009952;28;20266;-69
2022/10/29 10:26:33;;;;;;;3.30;3.10;;;37.60;39.80;;;;;;5011879;28;20569;-70
2022/10/29 10:29:22;;;;;;;3.15;3.05;;;37.70;39.30;;;;;;5011556;28;20192;-70
2022/10/29 10:31:55;;;;;;;2.70;2.55;;;37.80;38.70;;;;;;5014239;28;20295;-69
2022/10/29 10:34:23;;;;;;;3.33;3.13;;;37.90;40.10;;;;;;5011900;28;20216;-69
2022/10/29 10:37:01;;;;;;;3.85;3.10;;;37.90;40.00;;;;;;5016341;28;20180;-70
2022/10/29 10:39:39;;;;;;;3.42;3.08;;;38.10;39.60;;;;;;5011421;28;20189;-70
2022/10/29 10:42:24;;;;;;;3.00;2.85;;;38.20;40.80;;;;;;5018678;28;20188;-69
2022/10/29 10:44:56;;;;;;;2.65;2.50;;;38.30;38.60;;;;;;5010150;28;20188;-69
2022/10/29 10:47:26;;;;;;;3.22;2.15;;;38.40;40.00;;;;;;5013824;28;20192;-71
2022/10/29 10:49:52;;;;;;;2.80;2.70;;;38.40;38.50;;;;;;5010610;28;20215;-68
2022/10/29 10:52:24;;;;;;;3.92;2.55;;;38.40;39.40;;;;;;5011437;28;20663;-68
2022/10/29 10:55:15;;;;;;;2.97;2.05;;;38.50;39.50;;;;;;5012208;28;20215;-68
2022/10/29 10:57:48;;;;;;;1.95;1.95;;;38.50;40.20;;;;;;5012834;28;20187;-68
2022/10/29 11:00:21;;;;;;;1.45;1.45;;;38.50;40.60;;;;;;5017306;28;20259;-68
2022/10/29 11:02:56;;;;;;;2.17;1.70;;;38.60;40.30;;;;;;5010251;28;20914;-69
2022/10/29 11:05:22;;;;;;;2.40;1.65;;;38.60;40.30;;;;;;5019162;28;20184;-70
2022/10/29 11:07:59;;;;;;;1.73;1.63;;;38.40;38.30;;;;;;5013637;28;20187;-69
2022/10/29 11:10:34;;;;;;;1.77;1.77;;;38.30;40.40;;;;;;5015142;28;20638;-69
2022/10/29 11:13:05;;;;;;;1.60;1.50;;;38.30;39.20;;;;;;5017111;28;20211;-69
2022/10/29 11:15:59;;;;;;;1.27;1.27;;;38.30;39.90;;;;;;5016881;28;20305;-69
2022/10/29 11:18:41;;;;;;;1.23;1.23;;;38.20;37.90;;;;;;5002453;28;20315;-69
2022/10/29 11:21:32;;;;;;;1.05;1.05;;;38.10;38.50;;;;;;5002446;28;20192;-69
2022/10/29 11:24:09;;;;;;;1.77;1.73;;;37.80;37.70;;;;;;5002588;28;20192;-69
2022/10/29 11:26:59;;;;;;;1.17;1.17;;;37.50;39.70;;;;;;5002831;28;20226;-69
2022/10/29 11:29:47;;;;;;;0.93;0.93;;;37.30;38.40;;;;;;5000959;28;20250;-69
2022/10/29 11:32:27;;;;;;;1.35;1.30;;;36.80;39.90;;;;;;5002363;28;20266;-68
2022/10/29 11:35:30;;;;;;;1.38;1.35;;;36.40;39.50;;;;;;5002310;28;20667;-68
2022/10/29 11:38:39;;;;;;;1.20;1.10;;;36.10;38.70;;;;;;4925751;29;20203;-68
2022/10/29 11:41:54;;;;;;;1.30;1.30;;;35.90;38.90;;;;;;4864893;29;20201;-70
2022/10/29 11:44:20;;;;;;;1.63;1.00;;;36.10;38.90;;;;;;4812525;29;20233;-68
2022/10/29 11:47:12;;;;;;;1.52;1.42;;;36.00;39.10;;;;;;4814233;29;20249;-68
2022/10/29 11:49:43;;;;;;;1.70;1.33;;;35.90;39.30;;;;;;4761895;30;20680;-68
2022/10/29 11:52:27;;;;;;;1.00;0.98;;;36.00;39.70;;;;;;4760880;30;20209;-69
2022/10/29 11:55:21;;;;;;;1.10;1.10;;;36.10;39.20;;;;;;4760485;30;20236;-69
2022/10/29 11:58:29;;;;;;;1.05;1.05;;;36.20;38.40;;;;;;4783013;29;20201;-70
2022/10/29 12:01:14;;;;;;;2.10;1.38;;;36.10;38.20;;;;;;4764881;30;20750;-68
2022/10/29 12:03:46;;;;;;;3.92;1.45;;;36.10;38.80;;;;;;4766485;30;20205;-68
2022/10/29 12:06:20;;;;;;;1.20;1.10;;;35.90;39.60;;;;;;4781141;29;20201;-68
2022/10/29 12:08:51;;;;;;;1.55;1.25;;;35.70;39.50;;;;;;4765317;30;20765;-70
2022/10/29 12:11:21;;;;;;;0.90;0.90;;;35.70;40.00;;;;;;4773967;29;20206;-68
2022/10/29 12:13:47;;;;;;;1.05;0.90;;;35.00;40.70;;;;;;4801717;29;20231;-69
2022/10/29 12:16:30;;;;;;;1.42;1.30;;;35.00;40.70;;;;;;4909673;29;20255;-68
2022/10/29 12:19:18;;;;;;;4.80;1.52;;;34.70;39.40;;;;;;4908217;29;20615;-69
2022/10/29 12:22:13;;;;;;;1.90;1.13;;;34.40;40.20;;;;;;4904153;29;20236;-69
2022/10/29 12:24:47;;;;;;;1.10;1.10;;;34.20;40.30;;;;;;4905005;29;20636;-69
2022/10/29 12:27:25;;;;;;;0.63;0.57;;;34.20;40.30;;;;;;4982111;28;20607;-69
2022/10/29 12:29:51;;;;;;;3.33;1.00;;;34.20;39.70;;;;;;5000862;28;20235;-69
2022/10/29 12:32:45;;;;;;;2.28;0.93;;;33.90;40.60;;;;;;5002934;28;20708;-69
2022/10/29 12:35:32;;;;;;;1.00;1.00;;;33.60;40.30;;;;;;5003692;28;20236;-69
2022/10/29 12:38:24;;;;;;;0.98;0.98;;;33.50;40.80;;;;;;4998715;28;20259;-69
2022/10/29 12:40:57;;;;;;;1.00;1.00;;;33.60;40.70;;;;;;5003026;28;20185;-69
2022/10/29 12:43:27;;;;;;;0.90;0.90;;;33.60;40.60;;;;;;4999411;28;20283;-68
2022/10/29 12:46:21;;;;;;;1.55;1.00;;;33.80;41.10;;;;;;4999132;28;20215;-68
2022/10/29 12:49:04;;;;;;;1.65;1.00;;;33.90;39.70;;;;;;4999796;28;20675;-68
2022/10/29 12:51:55;;;;;;;1.20;1.20;;;33.70;40.10;;;;;;5000250;28;20261;-68
2022/10/29 12:54:40;;;;;;;0.90;0.90;;;33.80;40.50;;;;;;5000025;28;21195;-68
2022/10/29 12:57:12;;;;;;;0.95;0.95;;;33.90;40.00;;;;;;5001757;28;20390;-68
2022/10/29 12:59:39;;;;;;;4.35;1.00;;;34.00;39.90;;;;;;5005538;28;20196;-69
2022/10/29 13:02:20;;;;;;;2.85;1.05;;;34.00;40.10;;;;;;5006966;28;20188;-69
2022/10/29 13:05:10;;;;;;;2.15;0.95;;;34.10;39.90;;;;;;5013087;28;20209;-69
2022/10/29 13:07:44;;;;;;;1.00;1.00;;;34.10;39.60;;;;;;5012246;28;20278;-69
2022/10/29 13:10:22;;;;;;;0.75;0.75;;;34.10;40.30;;;;;;5010785;28;20175;-69
2022/10/29 13:12:56;;;;;;;0.90;0.90;;;34.00;40.20;;;;;;5008511;28;20186;-69
2022/10/29 13:15:35;;;;;;;1.38;1.27;;;33.80;40.50;;;;;;5008158;28;20227;-69